PLO weather

Port Lincoln Airport
Port Lincoln, South Australia, Australia

Public forecast

Using degrees Celsius for public forecast. Weather courtesy of forecast.io.

Closest aviation weather report (METAR) to Port Lincoln Airport

Closest report is Whyalla Airport, 123.5 nm (228.8 km) NE. Retrieved 2019/10/21 14:00 UTC (19 minutes ago):

YWHA 211400Z AUTO 26004KT 9999 // NCD 12/02 Q1023

Closest aviation forecast (TAF) to Port Lincoln Airport

Forecast is more than 12 hours old.

Closest forecast is Whyalla Airport, 123.5 nm (228.8 km) NE. Retrieved 2018/11/15 18:03 UTC (11 months ago):

TAF YWHA 151701Z 1518/1608 VRB05KT CAVOK FM152300 18012KT CAVOK FM160200 18018KT CAVOK